Weather at Thabazimbi Airport

Public forecast

Using degrees Celsius for public forecast. Weather courtesy of forecast.io.

Closest aviation weather report (METAR) to Thabazimbi Airport

Report is more than 6 hours old.

Closest report is Pilanesberg International Airport, 47.4 nm (87.8 km) SSW. Retrieved 2021/05/05 15:00 UTC (1 day ago):

FAPN 051500Z AUTO 18002KT //// // ////// ///// Q1019

Closest aviation forecast (TAF) to Thabazimbi Airport

Forecast is more than 12 hours old.

Closest forecast is Pilanesberg International Airport, 47.4 nm (87.8 km) SSW. Retrieved 2017/05/23 04:01 UTC (4 years ago):

TAF FAPN 230300Z 2304/2315 VRB02KT CAVOK TX25/2312ZTN03/2304Z